Time;durP1;ratioP1;P1;durP2;ratioP2;P2;SDS_P1;SDS_P2;PMS_P1;PMS_P2;Temp;Humidity;BMP_temperature;BMP_pressure;BME280_temperature;BME280_humidity;BME280_pressure;Samples;Min_cycle;Max_cycle;Signal;HPM_P1;HPM_P2
2021/09/17 00:03:34;;;;;;;45.37;41.90;;;;;;;14.40;100.00;101757.58;1940902;74;33097;-78
2021/09/17 00:08:59;;;;;;;48.00;44.60;;;;;;;14.48;100.00;101751.38;1941008;74;33029;-78
2021/09/17 00:14:23;;;;;;;47.67;44.37;;;;;;;14.42;100.00;101753.08;1940971;74;33014;-69
2021/09/17 00:19:48;;;;;;;48.03;44.53;;;;;;;14.70;100.00;101748.72;1940856;74;33073;-68
2021/09/17 00:25:12;;;;;;;45.27;41.87;;;;;;;14.69;100.00;101752.07;1940905;74;33042;-77
2021/09/17 00:30:37;;;;;;;45.33;41.83;;;;;;;14.92;100.00;101752.74;1941062;74;33535;-78
2021/09/17 00:36:02;;;;;;;44.30;40.97;;;;;;;14.89;100.00;101754.70;1940935;74;33015;-77
2021/09/17 00:41:27;;;;;;;42.80;39.60;;;;;;;14.97;100.00;101735.88;1941006;74;33469;-77
2021/09/17 00:46:53;;;;;;;45.20;41.90;;;;;;;14.94;100.00;101730.88;1940881;74;33092;-78
2021/09/17 00:52:18;;;;;;;43.47;39.97;;;;;;;14.89;100.00;101725.92;1941142;74;33553;-78
2021/09/17 00:57:43;;;;;;;43.10;39.93;;;;;;;14.86;100.00;101725.92;1941187;74;33650;-68
2021/09/17 01:03:10;;;;;;;42.83;39.87;;;;;;;14.77;100.00;101722.08;1941114;74;33482;-76
2021/09/17 01:08:34;;;;;;;44.67;41.37;;;;;;;14.76;100.00;101721.80;1940944;74;33070;-78
2021/09/17 01:14:01;;;;;;;44.73;41.33;;;;;;;14.82;100.00;101708.05;1940915;74;33099;-68
2021/09/17 01:19:26;;;;;;;45.10;41.80;;;;;;;14.81;100.00;101712.53;1940837;74;33124;-67
2021/09/17 01:24:53;;;;;;;46.63;43.13;;;;;;;14.73;100.00;101697.22;1940962;74;33002;-77
2021/09/17 01:30:21;;;;;;;45.30;41.70;;;;;;;14.79;100.00;101702.22;1940963;74;33575;-77
2021/09/17 01:35:46;;;;;;;49.00;45.10;;;;;;;14.84;100.00;101703.58;1940825;74;33011;-77
2021/09/17 01:41:11;;;;;;;46.73;42.93;;;;;;;14.93;100.00;101699.83;1941041;74;32995;-77
2021/09/17 01:46:35;;;;;;;51.07;46.90;;;;;;;14.92;100.00;101691.19;1940954;74;33525;-77
2021/09/17 01:52:01;;;;;;;49.40;45.20;;;;;;;15.02;100.00;101693.03;1940805;74;33028;-68
2021/09/17 01:57:25;;;;;;;52.00;47.63;;;;;;;15.04;100.00;101693.03;1940917;74;33038;-68
2021/09/17 02:02:50;;;;;;;50.23;46.00;;;;;;;15.10;100.00;101681.80;1941021;74;33536;-67
2021/09/17 02:08:15;;;;;;;50.70;46.50;;;;;;;15.07;100.00;101681.80;1941015;74;33547;-68
2021/09/17 02:13:39;;;;;;;50.13;46.10;;;;;;;15.16;100.00;101672.20;1940771;74;32979;-68
2021/09/17 02:19:04;;;;;;;49.63;45.50;;;;;;;15.22;100.00;101673.27;1941008;74;32982;-77
2021/09/17 02:24:28;;;;;;;49.57;45.30;;;;;;;15.30;100.00;101666.17;1940978;74;33502;-68
2021/09/17 02:29:53;;;;;;;50.13;45.97;;;;;;;15.34;100.00;101662.48;1940976;74;33519;-68
2021/09/17 02:35:17;;;;;;;51.13;46.87;;;;;;;15.39;100.00;101653.20;1940766;74;33106;-68
2021/09/17 02:40:42;;;;;;;50.97;46.47;;;;;;;15.32;100.00;101656.89;1940846;74;33127;-77
2021/09/17 02:46:06;;;;;;;53.20;48.90;;;;;;;15.12;100.00;101643.98;1940987;74;33038;-68
2021/09/17 02:51:30;;;;;;;50.87;46.50;;;;;;;14.98;100.00;101639.64;1940977;74;33447;-78
2021/09/17 02:56:55;;;;;;;52.37;48.20;;;;;;;15.09;100.00;101639.54;1940831;74;32975;-68
2021/09/17 03:02:19;;;;;;;49.27;45.37;;;;;;;14.78;100.00;101629.22;1940934;74;32980;-68
2021/09/17 03:07:43;;;;;;;51.07;46.97;;;;;;;14.51;100.00;101627.78;1940791;74;33078;-78
2021/09/17 03:13:08;;;;;;;50.77;46.43;;;;;;;14.53;100.00;101638.13;1940956;74;32981;-77
2021/09/17 03:18:32;;;;;;;49.67;45.43;;;;;;;14.58;100.00;101621.30;1940891;74;33050;-77
2021/09/17 03:23:56;;;;;;;49.43;45.17;;;;;;;14.59;100.00;101624.91;1941105;74;33187;-78
2021/09/17 03:29:22;;;;;;;50.47;46.27;;;;;;;14.73;100.00;101616.67;1940985;74;32982;-68
2021/09/17 03:34:47;;;;;;;51.03;46.83;;;;;;;14.81;100.00;101614.08;1940904;74;32980;-68
2021/09/17 03:40:13;;;;;;;49.73;45.33;;;;;;;14.88;100.00;101610.39;1940776;74;33038;-68
2021/09/17 03:45:37;;;;;;;48.70;44.70;;;;;;;14.78;100.00;101608.24;1940918;74;33069;-77
2021/09/17 03:51:02;;;;;;;48.60;44.40;;;;;;;14.88;100.00;101608.15;1940886;74;32970;-77
2021/09/17 03:56:27;;;;;;;48.47;44.30;;;;;;;14.92;100.00;101600.27;1940974;74;33519;-77
2021/09/17 04:01:51;;;;;;;53.97;48.77;;;;;;;15.06;100.00;101595.38;1867216;72;39957;-78
2021/09/17 04:07:16;;;;;;;55.60;50.10;;;;;;;15.05;100.00;101595.94;1940979;74;33498;-67
2021/09/17 04:12:41;;;;;;;55.63;50.13;;;;;;;15.12;100.00;101598.36;1940948;74;33456;-77
2021/09/17 04:18:07;;;;;;;54.00;49.00;;;;;;;15.03;100.00;101594.82;1941029;74;32980;-68
2021/09/17 04:23:31;;;;;;;54.67;49.17;;;;;;;15.02;100.00;101596.50;1940839;74;33080;-69
2021/09/17 04:28:56;;;;;;;55.37;49.93;;;;;;;14.82;100.00;101590.58;1941260;74;32972;-81
2021/09/17 04:34:20;;;;;;;54.37;48.83;;;;;;;14.88;100.00;101584.38;1940859;74;33028;-78
2021/09/17 04:39:45;;;;;;;54.50;48.70;;;;;;;14.79;100.00;101583.34;1940921;74;33038;-74
2021/09/17 04:45:11;;;;;;;55.20;49.20;;;;;;;14.75;100.00;101580.31;1941108;74;33061;-77
2021/09/17 04:50:36;;;;;;;54.50;48.63;;;;;;;14.76;100.00;101584.75;1940812;74;32974;-68
2021/09/17 04:56:00;;;;;;;53.37;47.87;;;;;;;14.69;100.00;101570.30;1941042;74;33516;-77
2021/09/17 05:01:25;;;;;;;56.03;48.37;;;;;;;14.74;100.00;101569.41;1940865;74;32965;-68
2021/09/17 05:06:52;;;;;;;54.70;48.93;;;;;;;14.67;100.00;101565.58;1941026;74;32993;-68
2021/09/17 05:12:16;;;;;;;55.10;49.27;;;;;;;14.78;100.00;101567.69;1940884;74;33033;-78
2021/09/17 05:17:40;;;;;;;53.00;47.53;;;;;;;14.77;100.00;101568.25;1940855;74;33040;-77
2021/09/17 05:23:07;;;;;;;52.47;47.40;;;;;;;14.77;100.00;101563.22;1940956;74;33549;-68
2021/09/17 05:28:32;;;;;;;52.73;47.50;;;;;;;14.82;100.00;101558.41;1940849;74;33220;-77
2021/09/17 05:33:57;;;;;;;52.27;47.20;;;;;;;14.84;100.00;101559.52;1940954;74;33027;-68
2021/09/17 05:39:21;;;;;;;52.73;47.77;;;;;;;14.90;100.00;101556.36;1940897;74;33039;-77
2021/09/17 05:44:46;;;;;;;53.90;48.77;;;;;;;14.76;100.00;101557.38;1941010;74;32980;-78
2021/09/17 05:50:12;;;;;;;50.90;46.30;;;;;;;14.75;100.00;101560.73;1940667;74;32956;-78
2021/09/17 05:55:38;;;;;;;53.40;48.30;;;;;;;14.74;100.00;101561.86;1940890;74;32974;-78
2021/09/17 06:01:04;;;;;;;53.37;48.23;;;;;;;14.74;100.00;101559.06;1940819;74;32955;-79
2021/09/17 06:06:31;;;;;;;54.23;49.10;;;;;;;14.66;100.00;101558.87;1941131;74;32960;-78
2021/09/17 06:11:55;;;;;;;53.73;48.87;;;;;;;14.68;100.00;101566.38;1940800;74;33146;-69
2021/09/17 06:17:20;;;;;;;51.50;46.80;;;;;;;14.60;100.00;101563.67;1940971;74;32973;-69
2021/09/17 06:22:46;;;;;;;51.50;47.00;;;;;;;14.61;100.00;101570.09;1940785;74;33146;-77
2021/09/17 06:28:12;;;;;;;50.90;46.23;;;;;;;14.69;100.00;101574.48;1940835;74;33209;-77
2021/09/17 06:33:37;;;;;;;50.23;45.77;;;;;;;14.59;100.00;101570.39;1940983;74;33656;-77
2021/09/17 06:39:02;;;;;;;48.30;44.20;;;;;;;14.74;100.00;101572.20;1941000;74;33597;-70
2021/09/17 06:44:26;;;;;;;47.47;43.70;;;;;;;14.68;100.00;101571.41;1940817;74;33500;-68
2021/09/17 06:49:51;;;;;;;48.93;45.03;;;;;;;14.83;100.00;101571.27;1940799;74;32991;-66
2021/09/17 06:55:24;;;;;;;47.67;43.70;;;;;;;14.79;100.00;101574.39;1940788;74;33067;-76
2021/09/17 07:00:49;;;;;;;47.30;43.30;;;;;;;14.88;100.00;101568.98;1940803;74;33103;-76
2021/09/17 07:06:13;;;;;;;50.80;46.80;;;;;;;14.92;100.00;101569.50;1940907;74;33149;-69
2021/09/17 07:11:39;;;;;;;46.80;42.77;;;;;;;15.00;100.00;101570.80;1940943;74;33474;-78
2021/09/17 07:17:03;;;;;;;48.67;44.30;;;;;;;15.73;100.00;101569.88;1940925;74;32991;-69
2021/09/17 07:22:34;;;;;;;48.70;44.60;;;;;;;15.38;100.00;101571.73;1940896;74;33659;-73
2021/09/17 07:28:00;;;;;;;51.37;47.47;;;;;;;15.65;100.00;101573.92;1941035;74;33476;-68
2021/09/17 07:33:24;;;;;;;49.90;46.13;;;;;;;15.45;100.00;101570.22;1940968;74;33101;-68
2021/09/17 07:38:49;;;;;;;53.10;49.40;;;;;;;15.52;100.00;101562.91;1925009;74;28680;-77
2021/09/17 07:44:14;;;;;;;46.37;42.67;;;;;;;15.47;100.00;101570.77;1940981;74;33058;-77
2021/09/17 07:49:38;;;;;;;46.50;43.23;;;;;;;15.74;100.00;101549.70;1940888;74;31133;-77
2021/09/17 07:55:05;;;;;;;43.47;40.27;;;;;;;16.33;100.00;101566.69;1941046;74;33475;-67
2021/09/17 08:00:29;;;;;;;45.20;41.73;;;;;;;16.54;100.00;101562.11;1941065;74;33500;-77
2021/09/17 08:06:14;;;;;;;46.70;43.27;;;;;;;16.60;100.00;101563.73;2009518;71;32924;-76
2021/09/17 08:11:39;;;;;;;44.17;40.77;;;;;;;16.72;100.00;101563.49;1940917;74;33552;-69
2021/09/17 08:17:04;;;;;;;42.50;39.20;;;;;;;17.05;100.00;101559.20;1941079;74;31044;-69
2021/09/17 08:22:28;;;;;;;42.63;39.63;;;;;;;17.18;100.00;101577.45;1940864;74;33601;-77
2021/09/17 08:27:52;;;;;;;39.63;36.83;;;;;;;17.42;100.00;101565.15;1941026;74;31542;-76
2021/09/17 08:33:17;;;;;;;39.03;36.33;;;;;;;17.71;100.00;101567.09;1940900;74;33470;-77
2021/09/17 08:38:42;;;;;;;42.53;39.67;;;;;;;17.72;100.00;101565.34;1940760;74;31156;-77
2021/09/17 08:44:07;;;;;;;42.13;39.63;;;;;;;17.88;100.00;101557.41;1940883;74;31651;-69
2021/09/17 08:49:35;;;;;;;43.17;40.47;;;;;;;17.96;100.00;101551.03;1940770;74;31583;-77
2021/09/17 08:55:03;;;;;;;44.23;41.63;;;;;;;18.00;100.00;101545.59;1940755;74;31267;-77
2021/09/17 09:00:44;;;;;;;44.00;41.53;;;;;;;17.98;100.00;101552.93;1940694;74;31061;-69
2021/09/17 09:06:23;;;;;;;37.83;35.27;;;;;;;18.09;100.00;101549.31;1940842;74;33416;-77
2021/09/17 09:11:50;;;;;;;38.80;36.47;;;;;;;18.26;100.00;101543.81;1940877;74;33605;-69
2021/09/17 09:17:14;;;;;;;41.43;39.03;;;;;;;18.36;100.00;101528.64;1940912;74;31026;-77
2021/09/17 09:22:39;;;;;;;39.63;37.20;;;;;;;18.53;100.00;101521.73;1940796;74;31577;-76
2021/09/17 09:28:13;;;;;;;39.33;37.13;;;;;;;18.37;100.00;101517.65;1940692;74;31069;-69
2021/09/17 09:33:39;;;;;;;44.17;41.77;;;;;;;18.62;100.00;101516.99;1940747;74;31092;-77
2021/09/17 09:39:07;;;;;;;34.00;31.83;;;;;;;18.84;100.00;101509.06;1940657;74;31065;-77
2021/09/17 09:44:32;;;;;;;34.33;32.43;;;;;;;19.00;100.00;101503.24;1940764;74;31519;-78
2021/09/17 09:50:06;;;;;;;33.53;31.67;;;;;;;18.74;100.00;101500.33;1940589;74;31107;-69
2021/09/17 09:55:32;;;;;;;34.27;32.20;;;;;;;18.83;100.00;101501.20;1940940;74;31217;-68
2021/09/17 10:00:58;;;;;;;32.23;30.33;;;;;;;19.12;100.00;101502.06;1940690;74;31055;-78
2021/09/17 10:06:24;;;;;;;38.37;36.27;;;;;;;19.11;100.00;101494.77;1940693;74;31025;-68
2021/09/17 10:11:49;;;;;;;38.40;36.40;;;;;;;19.32;100.00;101500.04;1940824;74;33538;-68
2021/09/17 10:17:19;;;;;;;32.13;30.23;;;;;;;19.42;100.00;101500.31;1940739;74;31082;-68
2021/09/17 10:22:45;;;;;;;30.50;28.90;;;;;;;19.46;100.00;101488.66;1940784;74;33493;-68
2021/09/17 10:28:14;;;;;;;30.07;28.37;;;;;;;19.41;100.00;101486.80;1940837;74;33520;-68
2021/09/17 10:33:39;;;;;;;28.73;27.07;;;;;;;19.76;100.00;101479.81;1940756;74;31024;-75
2021/09/17 10:42:12;;;;;;;28.77;27.17;;;;;;;20.10;100.00;101480.36;2060724;69;30576;-76
2021/09/17 10:45:18;;;;;;;29.77;28.17;;;;;;;19.96;100.00;101483.36;2030269;71;24535;-69
2021/09/17 10:48:04;;;;;;;30.97;29.27;;;;;;;19.99;100.00;101483.52;2030257;70;26723;-68
2021/09/17 10:50:49;;;;;;;27.83;26.20;;;;;;;20.16;100.00;101485.48;2030326;71;24371;-75
2021/09/17 10:54:09;;;;;;;31.83;30.13;;;;;;;20.05;100.00;101473.48;2030235;71;24560;-69
2021/09/17 11:00:06;;;;;;;28.23;26.63;;;;;;;20.12;100.00;101459.69;1940723;74;31021;-68
2021/09/17 11:05:37;;;;;;;29.50;27.77;;;;;;;20.29;100.00;101460.51;1940623;74;31100;-76
2021/09/17 11:11:23;;;;;;;26.83;25.33;;;;;;;20.41;100.00;101464.03;1940697;74;31006;-76
2021/09/17 11:16:52;;;;;;;28.57;26.77;;;;;;;20.27;100.00;101451.53;1940738;74;31173;-75
2021/09/17 11:22:16;;;;;;;28.83;27.33;;;;;;;20.39;100.00;101452.27;1940620;74;31019;-75
2021/09/17 11:27:43;;;;;;;27.13;25.73;;;;;;;20.38;100.00;101442.14;1940656;74;31023;-75
2021/09/17 11:33:22;;;;;;;27.60;26.00;;;;;;;20.37;100.00;101437.66;1940632;74;31075;-67
2021/09/17 11:38:47;;;;;;;28.37;26.83;;;;;;;20.44;100.00;101445.04;1940652;74;31009;-75
2021/09/17 11:44:13;;;;;;;29.60;28.13;;;;;;;20.54;100.00;101433.97;1940807;74;31474;-76
2021/09/17 11:49:41;;;;;;;28.10;26.70;;;;;;;20.55;100.00;101432.20;1940638;74;31165;-68
2021/09/17 11:55:10;;;;;;;30.63;29.10;;;;;;;20.58;100.00;101423.05;1940655;74;31086;-75
2021/09/17 12:00:35;;;;;;;28.50;27.10;;;;;;;20.70;100.00;101418.95;1940727;74;31489;-75
2021/09/17 12:06:01;;;;;;;27.97;26.57;;;;;;;20.76;100.00;101416.16;1940631;74;31111;-75
2021/09/17 12:11:26;;;;;;;27.40;26.03;;;;;;;20.85;100.00;101408.47;1940751;74;31036;-75
2021/09/17 12:17:11;;;;;;;28.17;26.73;;;;;;;20.88;100.00;101402.70;2009520;71;30945;-67
2021/09/17 12:22:59;;;;;;;29.90;28.30;;;;;;;20.64;100.00;101402.52;1940626;74;31028;-75
2021/09/17 12:28:25;;;;;;;28.30;26.90;;;;;;;20.74;100.00;101402.15;1940732;74;31020;-68
2021/09/17 12:33:50;;;;;;;30.07;28.43;;;;;;;21.01;100.00;101390.95;1940956;74;31616;-75
2021/09/17 12:39:14;;;;;;;28.80;27.17;;;;;;;21.16;100.00;101382.71;1940839;74;31023;-76
2021/09/17 12:44:44;;;;;;;29.05;27.52;;;;;;;21.25;100.00;101376.41;1940752;74;31118;-68
2021/09/17 12:50:14;;;;;;;28.83;27.25;;;;;;;21.34;100.00;101379.17;1940825;74;31475;-78
2021/09/17 12:55:43;;;;;;;27.50;26.00;;;;;;;21.33;100.00;101380.33;1940848;74;31574;-70
2021/09/17 13:01:13;;;;;;;26.95;25.62;;;;;;;21.37;100.00;101364.34;1940865;74;33487;-78
2021/09/17 13:06:37;;;;;;;25.57;24.37;;;;;;;21.35;100.00;101366.67;1940854;74;31202;-79
2021/09/17 13:12:04;;;;;;;23.90;22.80;;;;;;;21.21;100.00;101335.89;1940762;74;31312;-70
2021/09/17 13:17:30;;;;;;;26.47;24.93;;;;;;;21.27;100.00;101348.63;1940839;74;31708;-79
2021/09/17 13:22:56;;;;;;;23.25;22.20;;;;;;;21.36;100.00;101348.55;1940668;74;31174;-79
2021/09/17 13:28:21;;;;;;;24.98;23.83;;;;;;;21.36;100.00;101354.20;1940686;74;31125;-77
2021/09/17 13:33:45;;;;;;;23.90;22.80;;;;;;;21.56;100.00;101351.13;1940777;74;31140;-78
2021/09/17 13:39:12;;;;;;;22.87;21.68;;;;;;;21.34;100.00;101349.50;1940735;74;31048;-78
2021/09/17 13:44:56;;;;;;;21.77;20.73;;;;;;;21.37;100.00;101355.86;2016167;71;31390;-79
2021/09/17 13:50:24;;;;;;;20.75;19.75;;;;;;;21.31;100.00;101351.58;1940764;74;31068;-79
2021/09/17 13:55:50;;;;;;;21.62;20.62;;;;;;;21.39;100.00;101343.64;1940696;74;31104;-68
2021/09/17 14:01:15;;;;;;;21.00;20.00;;;;;;;21.35;100.00;101339.82;1940831;74;31534;-68
2021/09/17 14:06:39;;;;;;;20.67;19.77;;;;;;;21.38;100.00;101327.02;1940748;74;31256;-68
2021/09/17 14:12:04;;;;;;;22.03;20.90;;;;;;;21.29;100.00;101316.62;1940689;74;31110;-69
2021/09/17 14:17:28;;;;;;;22.10;21.10;;;;;;;21.38;100.00;101324.19;1940831;74;31526;-69
2021/09/17 14:22:53;;;;;;;21.23;20.23;;;;;;;21.37;100.00;101317.70;1940654;74;31066;-67
2021/09/17 14:28:17;;;;;;;23.30;22.27;;;;;;;21.29;100.00;101315.20;1940812;74;31549;-78
2021/09/17 14:33:43;;;;;;;24.05;22.75;;;;;;;21.39;100.00;101313.96;1940847;74;31039;-77
2021/09/17 14:39:07;;;;;;;25.15;24.00;;;;;;;21.53;100.00;101313.05;1940911;74;31040;-77
2021/09/17 14:44:32;;;;;;;24.92;23.32;;;;;;;21.58;100.00;101304.36;1940867;74;31539;-68
2021/09/17 14:49:56;;;;;;;24.18;22.80;;;;;;;21.57;100.00;101306.11;1940886;74;31141;-76
2021/09/17 14:55:21;;;;;;;23.85;22.65;;;;;;;21.73;100.00;101300.05;1940790;74;31634;-77
2021/09/17 15:00:46;;;;;;;24.45;23.15;;;;;;;21.68;100.00;101294.61;1940782;74;31040;-77
2021/09/17 15:06:10;;;;;;;23.50;22.30;;;;;;;21.60;100.00;101288.47;1940677;74;31053;-77
2021/09/17 15:11:35;;;;;;;23.27;21.97;;;;;;;21.68;100.00;101284.14;1940877;74;31601;-77
2021/09/17 15:16:59;;;;;;;22.53;21.33;;;;;;;21.84;100.00;101280.62;1940815;74;31862;-77
2021/09/17 15:22:24;;;;;;;23.10;21.90;;;;;;;21.82;100.00;101278.16;1940743;74;31671;-77
2021/09/17 15:27:49;;;;;;;23.55;22.35;;;;;;;21.47;100.00;101274.06;1940667;74;31048;-78
2021/09/17 15:33:13;;;;;;;25.70;24.20;;;;;;;21.49;100.00;101271.69;1971954;72;30961;-68
2021/09/17 15:38:38;;;;;;;26.00;24.57;;;;;;;21.48;100.00;101260.97;1940846;74;31650;-68
2021/09/17 15:44:05;;;;;;;23.15;21.85;;;;;;;21.46;100.00;101263.34;1940775;74;31136;-77
2021/09/17 15:49:30;;;;;;;23.60;22.50;;;;;;;21.39;100.00;101266.50;1940677;74;31104;-75
2021/09/17 15:54:55;;;;;;;25.08;23.77;;;;;;;21.25;100.00;101263.39;1940834;74;31540;-75
2021/09/17 16:00:20;;;;;;;23.38;22.27;;;;;;;21.50;100.00;101264.88;1940648;74;31141;-77
2021/09/17 16:05:44;;;;;;;24.55;23.35;;;;;;;21.25;100.00;101259.14;1940844;74;31520;-66
2021/09/17 16:11:09;;;;;;;25.85;24.55;;;;;;;21.15;100.00;101253.91;1940695;74;31238;-67
2021/09/17 16:16:34;;;;;;;26.05;24.75;;;;;;;21.37;100.00;101254.70;1940841;74;31081;-75
2021/09/17 16:21:58;;;;;;;28.15;26.65;;;;;;;21.41;100.00;101258.48;1940811;74;31153;-71
2021/09/17 16:27:23;;;;;;;29.45;28.25;;;;;;;21.33;100.00;101263.05;1940815;74;31057;-68
2021/09/17 16:32:53;;;;;;;31.12;29.70;;;;;;;21.30;100.00;101266.58;1940777;74;31109;-77
2021/09/17 16:38:17;;;;;;;29.87;28.47;;;;;;;21.17;100.00;101262.88;1940882;74;31111;-76
2021/09/17 16:43:42;;;;;;;30.90;29.30;;;;;;;21.15;100.00;101260.15;1940816;74;31109;-76
2021/09/17 16:49:07;;;;;;;29.50;27.90;;;;;;;21.12;100.00;101253.20;1940856;74;31174;-69
2021/09/17 16:54:32;;;;;;;29.00;27.50;;;;;;;21.17;100.00;101253.00;1940669;74;31079;-68
2021/09/17 17:00:02;;;;;;;30.55;28.85;;;;;;;21.17;100.00;101253.58;1940820;74;31512;-77
2021/09/17 17:05:27;;;;;;;33.17;31.40;;;;;;;21.09;100.00;101255.29;1822386;71;31441;-75
2021/09/17 17:10:52;;;;;;;33.07;31.27;;;;;;;20.93;100.00;101256.23;1940885;74;31626;-71
2021/09/17 17:16:16;;;;;;;35.05;33.15;;;;;;;20.92;100.00;101254.61;1940770;74;31092;-73
2021/09/17 17:21:40;;;;;;;33.83;32.10;;;;;;;20.85;100.00;101255.98;1940788;74;31014;-71
2021/09/17 17:27:10;;;;;;;31.87;30.27;;;;;;;20.83;100.00;101256.92;1940707;74;31010;-77
2021/09/17 17:32:35;;;;;;;30.62;29.10;;;;;;;20.77;100.00;101245.58;1940754;74;31129;-76
2021/09/17 17:38:01;;;;;;;41.23;38.77;;;;;;;20.55;100.00;101248.73;1940698;74;31144;-74
2021/09/17 17:43:26;;;;;;;43.10;40.73;;;;;;;19.74;100.00;101258.01;1940751;74;31148;-74
2021/09/17 17:48:50;;;;;;;42.77;40.27;;;;;;;19.68;100.00;101267.83;1940686;74;31130;-73
2021/09/17 17:54:15;;;;;;;42.33;39.87;;;;;;;19.63;100.00;101270.83;1940822;74;31051;-73
2021/09/17 17:59:40;;;;;;;41.30;38.70;;;;;;;19.65;100.00;101282.00;1940783;74;31038;-74
2021/09/17 18:05:09;;;;;;;41.87;39.33;;;;;;;19.67;100.00;101283.08;1940843;74;31590;-74
2021/09/17 18:10:34;;;;;;;47.63;44.83;;;;;;;19.42;100.00;101280.55;1940817;74;31116;-75
2021/09/17 18:16:01;;;;;;;48.53;45.83;;;;;;;18.85;100.00;101291.17;1940708;74;31111;-75
2021/09/17 18:21:26;;;;;;;48.93;46.13;;;;;;;18.67;100.00;101292.30;1940795;74;31054;-71
2021/09/17 18:26:51;;;;;;;50.77;47.87;;;;;;;18.42;100.00;101296.70;1940650;74;31048;-72
2021/09/17 18:32:19;;;;;;;50.53;47.63;;;;;;;18.30;100.00;101298.73;1940796;74;31250;-71
2021/09/17 18:37:43;;;;;;;47.20;44.40;;;;;;;18.08;100.00;101307.25;1940679;74;31045;-71
2021/09/17 18:43:08;;;;;;;48.03;44.87;;;;;;;18.00;100.00;101313.09;1940846;74;31585;-71
2021/09/17 18:48:36;;;;;;;46.90;44.00;;;;;;;17.98;100.00;101313.98;1940825;74;31573;-72
2021/09/17 18:54:01;;;;;;;47.00;44.03;;;;;;;17.80;100.00;101319.26;1940646;74;31140;-76
2021/09/17 18:59:26;;;;;;;48.27;45.17;;;;;;;17.74;100.00;101323.38;1940782;74;31642;-74
2021/09/17 19:04:50;;;;;;;50.97;47.93;;;;;;;17.59;100.00;101337.80;1940718;74;31105;-72
2021/09/17 19:10:15;;;;;;;48.27;45.27;;;;;;;17.63;100.00;101345.84;1940765;74;31050;-74
2021/09/17 19:15:42;;;;;;;48.40;45.47;;;;;;;17.47;100.00;101346.80;1940871;74;31120;-70
2021/09/17 19:21:06;;;;;;;47.30;44.23;;;;;;;17.28;100.00;101355.39;1940846;74;33565;-74
2021/09/17 19:26:32;;;;;;;48.43;45.33;;;;;;;17.27;100.00;101365.55;1940733;74;33178;-74
2021/09/17 19:31:58;;;;;;;49.20;45.83;;;;;;;17.20;100.00;101371.59;1940834;74;31128;-78
2021/09/17 19:37:23;;;;;;;49.87;46.67;;;;;;;17.22;100.00;101381.12;1940721;74;31090;-74
2021/09/17 19:42:49;;;;;;;49.33;45.77;;;;;;;17.15;100.00;101383.54;1940766;74;31084;-77
2021/09/17 19:48:14;;;;;;;52.27;48.87;;;;;;;17.12;100.00;101387.80;1940769;74;31116;-74
2021/09/17 19:53:38;;;;;;;49.20;45.67;;;;;;;16.95;100.00;101401.66;1940959;74;31514;-73
2021/09/17 19:59:03;;;;;;;47.17;43.97;;;;;;;16.90;100.00;101407.98;1940841;74;31174;-72
2021/09/17 20:04:28;;;;;;;48.90;45.50;;;;;;;16.89;100.00;101411.92;1940820;74;31106;-75
2021/09/17 20:09:52;;;;;;;51.93;48.33;;;;;;;16.76;100.00;101413.59;1940715;74;31133;-76
2021/09/17 20:15:18;;;;;;;48.63;45.43;;;;;;;16.82;100.00;101412.33;1940867;74;33188;-76
2021/09/17 20:20:45;;;;;;;45.63;42.53;;;;;;;16.68;100.00;101410.96;1940679;74;31162;-72
2021/09/17 20:26:09;;;;;;;50.40;47.17;;;;;;;16.52;100.00;101425.55;1940733;74;31217;-72
2021/09/17 20:31:33;;;;;;;50.33;46.93;;;;;;;16.47;100.00;101437.73;1940703;74;31146;-72
2021/09/17 20:37:05;;;;;;;51.10;47.50;;;;;;;16.36;100.00;101438.48;1940817;74;33498;-71
2021/09/17 20:42:36;;;;;;;47.23;43.83;;;;;;;16.34;100.00;101441.34;1940727;74;31097;-72
2021/09/17 20:48:03;;;;;;;49.93;46.63;;;;;;;16.36;100.00;101444.66;1940926;74;31557;-72
2021/09/17 20:53:28;;;;;;;47.70;44.27;;;;;;;16.21;100.00;101462.61;1940769;74;31040;-72
2021/09/17 20:58:52;;;;;;;49.63;46.03;;;;;;;16.26;100.00;101455.48;1940821;74;33160;-73
2021/09/17 21:04:17;;;;;;;47.63;44.43;;;;;;;16.12;100.00;101453.81;1940889;74;31084;-69
2021/09/17 21:09:42;;;;;;;47.57;44.27;;;;;;;15.92;100.00;101469.83;1941072;74;31157;-70
2021/09/17 21:15:09;;;;;;;47.13;43.90;;;;;;;15.80;100.00;101465.27;1940944;74;32993;-70
2021/09/17 21:20:34;;;;;;;47.57;43.73;;;;;;;15.84;100.00;101485.09;1940956;74;31050;-72
2021/09/17 21:25:59;;;;;;;47.03;43.53;;;;;;;15.70;100.00;101478.63;1941151;74;33551;-76
2021/09/17 21:31:24;;;;;;;48.23;44.80;;;;;;;15.72;100.00;101472.97;1940939;74;31049;-74
2021/09/17 21:36:49;;;;;;;52.13;48.70;;;;;;;15.78;100.00;101475.97;1940858;74;31035;-71
2021/09/17 21:42:21;;;;;;;53.10;49.60;;;;;;;15.82;100.00;101477.02;1940960;74;33079;-71
2021/09/17 21:47:46;;;;;;;54.33;50.77;;;;;;;15.78;100.00;101476.53;1940865;74;31045;-76
2021/09/17 21:53:10;;;;;;;51.50;48.07;;;;;;;15.77;100.00;101486.90;1941072;74;33470;-76
2021/09/17 21:58:35;;;;;;;54.60;50.97;;;;;;;15.68;100.00;101482.28;1940922;74;33130;-74
2021/09/17 22:04:22;;;;;;;56.30;52.57;;;;;;;15.49;100.00;101492.05;2009967;71;33288;-70
2021/09/17 22:09:47;;;;;;;55.47;51.77;;;;;;;15.42;100.00;101491.04;1940952;74;33075;-71
2021/09/17 22:15:14;;;;;;;56.40;52.50;;;;;;;15.30;100.00;101497.66;1941071;74;33538;-70
2021/09/17 22:20:44;;;;;;;57.90;54.10;;;;;;;15.45;100.00;101499.39;1940828;74;33058;-74
2021/09/17 22:26:09;;;;;;;56.37;52.40;;;;;;;15.51;100.00;101500.19;1941150;74;33546;-77
2021/09/17 22:31:33;;;;;;;57.27;53.27;;;;;;;15.75;100.00;101500.93;1941013;74;33652;-71
2021/09/17 22:36:57;;;;;;;58.63;54.60;;;;;;;15.77;100.00;101507.08;1941108;74;33068;-74
2021/09/17 22:42:22;;;;;;;60.83;56.53;;;;;;;15.83;100.00;101503.88;1940983;74;31084;-72
2021/09/17 22:47:46;;;;;;;58.77;54.57;;;;;;;15.76;100.00;101504.00;1941038;74;31553;-71
2021/09/17 22:53:11;;;;;;;58.37;54.17;;;;;;;15.75;100.00;101508.77;1940906;74;33099;-70
2021/09/17 22:58:36;;;;;;;60.60;56.43;;;;;;;15.84;100.00;101499.94;1940845;74;33084;-74
2021/09/17 23:04:00;;;;;;;56.60;52.40;;;;;;;15.71;100.00;101502.11;1940918;74;33143;-74
2021/09/17 23:09:25;;;;;;;57.57;53.37;;;;;;;15.48;100.00;101494.05;1940842;74;33047;-74
2021/09/17 23:14:49;;;;;;;58.73;54.50;;;;;;;15.38;100.00;101491.94;1940944;74;33079;-74
2021/09/17 23:20:33;;;;;;;50.37;47.07;;;;;;;15.22;100.00;101487.70;2009676;71;32994;-71
2021/09/17 23:25:58;;;;;;;48.47;45.67;;;;;;;14.53;100.00;101491.91;1941086;74;33629;-70
2021/09/17 23:31:22;;;;;;;46.50;43.47;;;;;;;14.16;100.00;101493.93;1940770;74;33071;-76
2021/09/17 23:36:46;;;;;;;49.27;45.93;;;;;;;14.17;100.00;101494.73;1940744;74;32981;-70
2021/09/17 23:42:16;;;;;;;54.33;50.63;;;;;;;14.33;100.00;101500.47;1940791;74;33094;-71
2021/09/17 23:47:40;;;;;;;52.90;48.70;;;;;;;14.62;100.00;101503.27;1941091;74;33462;-75
2021/09/17 23:53:07;;;;;;;58.47;54.07;;;;;;;14.60;100.00;101499.36;1941000;74;33524;-75
2021/09/17 23:58:31;;;;;;;57.30;53.20;;;;;;;14.41;100.00;101501.26;1940907;74;32958;-74
